createdAt,value
2018-07-23T00:00:39.458Z,0.00
2018-07-23T00:01:39.478Z,0.00
2018-07-23T00:02:39.570Z,0.00
2018-07-23T00:03:39.590Z,0.00
2018-07-23T00:04:39.628Z,0.00
2018-07-23T00:05:39.630Z,0.00
2018-07-23T00:06:39.714Z,0.00
2018-07-23T00:07:39.784Z,0.00
2018-07-23T00:08:39.786Z,0.00
2018-07-23T00:09:39.828Z,0.00
2018-07-23T00:10:39.883Z,0.00
2018-07-23T00:11:39.939Z,0.00
2018-07-23T00:12:39.971Z,0.00
2018-07-23T00:13:40.010Z,0.00
2018-07-23T00:14:40.070Z,0.00
2018-07-23T00:15:40.090Z,0.00
2018-07-23T00:16:40.141Z,0.00
2018-07-23T00:17:40.207Z,0.00
2018-07-23T00:18:40.231Z,0.00
2018-07-23T00:19:40.271Z,0.00
2018-07-23T00:20:40.339Z,0.00
2018-07-23T00:21:40.359Z,0.00
2018-07-23T00:22:40.408Z,0.00
2018-07-23T00:23:40.450Z,0.00
2018-07-23T00:24:40.482Z,0.00
2018-07-23T00:25:40.534Z,0.00
2018-07-23T00:26:40.600Z,0.00
2018-07-23T00:27:40.604Z,0.00
2018-07-23T00:28:40.661Z,0.00
2018-07-23T00:29:40.712Z,0.00
2018-07-23T00:30:40.732Z,0.00
2018-07-23T00:31:40.774Z,0.00
2018-07-23T00:32:40.832Z,0.00
2018-07-23T00:33:40.879Z,0.00
2018-07-23T00:34:40.893Z,0.00
2018-07-23T00:35:40.993Z,0.00
2018-07-23T00:36:41.043Z,0.00
2018-07-23T00:37:41.038Z,0.00
2018-07-23T00:38:41.150Z,0.00
2018-07-23T00:39:41.158Z,0.00
2018-07-23T00:40:41.228Z,0.00
2018-07-23T00:41:41.225Z,0.00
2018-07-23T00:42:41.292Z,0.00
2018-07-23T00:43:41.333Z,0.00
2018-07-23T00:44:41.345Z,0.00
2018-07-23T00:45:41.410Z,0.00
2018-07-23T00:46:41.455Z,0.00
2018-07-23T00:47:41.469Z,0.00
2018-07-23T00:48:41.554Z,0.00
2018-07-23T00:49:41.573Z,0.00
2018-07-23T00:50:41.600Z,0.00
2018-07-23T00:51:41.688Z,0.00
2018-07-23T00:52:41.709Z,0.00
2018-07-23T00:53:41.755Z,0.00
2018-07-23T00:54:41.792Z,0.00
2018-07-23T00:55:41.797Z,0.00
2018-07-23T00:56:41.864Z,0.00
2018-07-23T00:57:41.933Z,0.00
2018-07-23T00:58:41.969Z,0.00
2018-07-23T00:59:41.994Z,0.00
2018-07-23T01:00:42.094Z,0.00
2018-07-23T01:01:42.101Z,0.00
2018-07-23T01:02:42.149Z,0.00
2018-07-23T01:03:42.187Z,0.00
2018-07-23T01:04:42.253Z,0.00
2018-07-23T01:05:42.268Z,0.00
2018-07-23T01:06:42.314Z,0.00
2018-07-23T01:07:42.371Z,0.00
2018-07-23T01:08:42.381Z,0.00
2018-07-23T01:09:42.431Z,0.00
2018-07-23T01:10:42.499Z,0.00
2018-07-23T01:11:42.543Z,0.00
2018-07-23T01:12:42.571Z,0.00
2018-07-23T01:13:42.665Z,0.00
2018-07-23T01:14:42.661Z,0.00
2018-07-23T01:15:42.693Z,0.00
2018-07-23T01:16:42.727Z,0.00
2018-07-23T01:17:42.828Z,0.00
2018-07-23T01:18:42.838Z,0.00
2018-07-23T01:19:42.864Z,0.00
2018-07-23T01:20:42.908Z,0.00
2018-07-23T01:21:42.959Z,0.00
2018-07-23T01:22:43.020Z,0.00
2018-07-23T01:23:43.029Z,0.00
2018-07-23T01:24:43.074Z,0.00
2018-07-23T01:25:43.140Z,0.00
2018-07-23T01:26:43.193Z,0.00
2018-07-23T01:27:43.230Z,0.00
2018-07-23T01:28:43.251Z,0.00
2018-07-23T01:29:43.307Z,0.00
2018-07-23T01:30:43.396Z,0.00
2018-07-23T01:31:43.408Z,0.00
2018-07-23T01:32:43.455Z,0.00
2018-07-23T01:33:43.468Z,0.00
2018-07-23T01:34:43.567Z,0.00
2018-07-23T01:35:43.555Z,0.00
2018-07-23T01:36:43.576Z,0.00
2018-07-23T01:37:43.649Z,0.00
2018-07-23T01:38:43.698Z,0.00
2018-07-23T01:39:43.746Z,0.00
2018-07-23T01:40:43.783Z,0.00
2018-07-23T01:41:43.832Z,0.00
2018-07-23T01:42:43.880Z,0.00
2018-07-23T01:43:43.911Z,0.00
2018-07-23T01:44:43.955Z,0.00
2018-07-23T01:45:44.015Z,0.00
2018-07-23T01:46:44.022Z,0.00
2018-07-23T01:47:44.077Z,0.00
2018-07-23T01:48:44.142Z,0.00
2018-07-23T01:49:44.184Z,0.00
2018-07-23T01:50:44.196Z,0.00
2018-07-23T01:51:44.251Z,0.00
2018-07-23T01:52:44.301Z,0.00
2018-07-23T01:53:44.338Z,0.00
2018-07-23T01:54:44.431Z,0.00
2018-07-23T01:55:44.475Z,0.00
2018-07-23T01:56:44.480Z,0.00
2018-07-23T01:57:44.524Z,0.00
2018-07-23T01:58:44.549Z,0.00
2018-07-23T01:59:44.610Z,0.00
2018-07-23T02:00:44.628Z,0.00
2018-07-23T02:01:44.696Z,0.00
2018-07-23T02:02:44.749Z,0.00
2018-07-23T02:03:44.795Z,0.00
2018-07-23T02:04:44.822Z,0.00
2018-07-23T02:05:44.906Z,0.00
2018-07-23T02:06:44.916Z,0.00
2018-07-23T02:07:44.956Z,0.00
2018-07-23T02:08:45.211Z,0.00
2018-07-23T02:09:45.062Z,0.00
2018-07-23T02:10:45.104Z,0.00
2018-07-23T02:11:45.130Z,0.00
2018-07-23T02:12:45.186Z,0.00
2018-07-23T02:13:45.195Z,0.00
2018-07-23T02:14:45.306Z,0.00
2018-07-23T02:15:45.297Z,0.00
2018-07-23T02:16:45.405Z,0.00
2018-07-23T02:17:45.396Z,0.00
2018-07-23T02:18:45.436Z,0.00
2018-07-23T02:19:45.506Z,0.00
2018-07-23T02:20:45.570Z,0.00
2018-07-23T02:21:45.581Z,0.00
2018-07-23T02:22:45.614Z,0.00
2018-07-23T02:23:45.646Z,0.00
2018-07-23T02:24:45.706Z,0.00
2018-07-23T02:25:45.755Z,0.00
2018-07-23T02:26:45.977Z,0.00
2018-07-23T02:27:45.833Z,0.00
2018-07-23T02:28:45.861Z,0.00
2018-07-23T02:29:45.886Z,0.00
2018-07-23T02:30:45.976Z,0.00
2018-07-23T02:31:45.994Z,0.00
2018-07-23T02:32:46.029Z,0.00
2018-07-23T02:33:46.059Z,0.00
2018-07-23T02:34:46.144Z,0.00
2018-07-23T02:35:46.165Z,0.00
2018-07-23T02:36:46.225Z,0.00
2018-07-23T02:37:46.271Z,0.00
2018-07-23T02:38:46.333Z,0.00
2018-07-23T02:39:46.347Z,0.00
2018-07-23T02:40:46.382Z,0.00
2018-07-23T02:41:46.428Z,0.00
2018-07-23T02:42:46.473Z,0.00
2018-07-23T02:43:46.568Z,0.00
2018-07-23T02:44:46.549Z,0.00
2018-07-23T02:45:46.650Z,0.00
2018-07-23T02:46:46.663Z,0.00
2018-07-23T02:47:46.697Z,0.00
2018-07-23T02:48:46.768Z,0.00
2018-07-23T02:49:46.772Z,0.00
2018-07-23T02:50:46.817Z,0.00
2018-07-23T02:51:46.880Z,0.00
2018-07-23T02:52:46.928Z,0.00
2018-07-23T02:53:46.946Z,0.00
2018-07-23T02:54:47.179Z,0.00
2018-07-23T02:55:47.029Z,0.00
2018-07-23T02:56:47.084Z,0.00
2018-07-23T02:57:47.107Z,0.00
2018-07-23T02:58:47.168Z,0.00
2018-07-23T02:59:47.212Z,0.00
2018-07-23T03:00:47.242Z,0.00
2018-07-23T03:01:47.275Z,0.00
2018-07-23T03:02:47.367Z,0.00
2018-07-23T03:03:47.362Z,0.00
2018-07-23T03:04:47.418Z,0.00
2018-07-23T03:05:47.470Z,0.00
2018-07-23T03:06:47.703Z,0.00
2018-07-23T03:07:47.538Z,0.00
2018-07-23T03:08:47.614Z,0.00
2018-07-23T03:09:47.658Z,0.00
2018-07-23T03:10:47.671Z,0.00
2018-07-23T03:11:47.733Z,0.00
2018-07-23T03:12:47.777Z,0.00
2018-07-23T03:13:47.820Z,0.00
2018-07-23T03:14:47.844Z,0.00
2018-07-23T03:15:47.913Z,0.00
2018-07-23T03:16:47.927Z,0.00
2018-07-23T03:17:47.991Z,0.00
2018-07-23T03:18:48.022Z,0.00
2018-07-23T03:19:48.069Z,0.00
2018-07-23T03:20:48.104Z,0.00
2018-07-23T03:21:48.202Z,0.00
2018-07-23T03:22:48.206Z,0.00
2018-07-23T03:23:48.228Z,0.00
2018-07-23T03:24:48.304Z,0.00
2018-07-23T03:25:48.317Z,0.00
2018-07-23T03:26:48.369Z,0.00
2018-07-23T03:27:48.417Z,0.00
2018-07-23T03:28:48.454Z,0.00
2018-07-23T03:29:48.503Z,0.00
2018-07-23T03:30:48.541Z,0.00
2018-07-23T03:31:48.604Z,0.00
2018-07-23T03:32:48.671Z,0.00
2018-07-23T03:33:48.674Z,0.00
2018-07-23T03:34:48.721Z,0.00
2018-07-23T03:35:48.753Z,0.00
2018-07-23T03:36:48.774Z,0.00
2018-07-23T03:37:48.883Z,0.00
2018-07-23T03:38:48.877Z,0.00
2018-07-23T03:39:48.915Z,0.00
2018-07-23T03:40:48.989Z,0.00
2018-07-23T03:41:49.033Z,0.00
2018-07-23T03:42:49.066Z,0.00
2018-07-23T03:43:49.114Z,0.00
2018-07-23T03:44:49.141Z,0.00
2018-07-23T03:45:49.187Z,0.00
2018-07-23T03:46:49.206Z,0.00
2018-07-23T03:47:49.473Z,0.00
2018-07-23T03:48:49.325Z,0.00
2018-07-23T03:49:49.373Z,0.00
2018-07-23T03:50:49.382Z,0.00
2018-07-23T03:51:49.450Z,0.00
2018-07-23T03:52:49.491Z,0.00
2018-07-23T03:53:49.574Z,0.00
2018-07-23T03:54:49.556Z,0.00
2018-07-23T03:55:49.618Z,0.00
2018-07-23T03:56:49.633Z,0.00
2018-07-23T03:57:49.688Z,0.00
2018-07-23T03:58:49.967Z,0.00
2018-07-23T03:59:49.783Z,0.00
2018-07-23T04:00:49.817Z,0.00
2018-07-23T04:01:49.910Z,0.00
2018-07-23T04:02:49.926Z,0.00
2018-07-23T04:03:49.953Z,0.00
2018-07-23T04:04:50.064Z,0.00
2018-07-23T04:05:50.058Z,0.00
2018-07-23T04:06:50.082Z,0.00
2018-07-23T04:07:50.151Z,0.00
2018-07-23T04:08:50.171Z,0.00
2018-07-23T04:09:50.387Z,0.00
2018-07-23T04:10:50.238Z,0.00
2018-07-23T04:11:50.292Z,0.00
2018-07-23T04:12:50.378Z,0.00
2018-07-23T04:13:50.418Z,0.00
2018-07-23T04:14:50.444Z,0.00
2018-07-23T04:15:50.474Z,0.00
2018-07-23T04:16:50.496Z,0.00
2018-07-23T04:17:50.554Z,0.00
2018-07-23T04:18:50.590Z,0.00
2018-07-23T04:19:50.623Z,0.00
2018-07-23T04:20:50.683Z,0.00
2018-07-23T04:21:50.911Z,0.00
2018-07-23T04:22:50.763Z,0.00
2018-07-23T04:23:50.800Z,0.00
2018-07-23T04:24:50.844Z,0.00
2018-07-23T04:25:50.891Z,0.00
2018-07-23T04:26:50.929Z,0.00
2018-07-23T04:27:50.951Z,0.00
2018-07-23T04:28:50.993Z,0.00
2018-07-23T04:29:51.059Z,0.00
2018-07-23T04:30:51.147Z,0.00
2018-07-23T04:31:51.170Z,0.00
2018-07-23T04:32:51.432Z,0.00
2018-07-23T04:33:51.543Z,0.00
2018-07-23T04:34:51.364Z,0.00
2018-07-23T04:35:51.366Z,0.00
2018-07-23T04:36:51.397Z,0.00
2018-07-23T04:37:51.478Z,0.00
2018-07-23T04:38:51.489Z,0.00
2018-07-23T04:39:51.519Z,0.00
2018-07-23T04:40:51.777Z,0.00
2018-07-23T04:41:51.609Z,0.00
2018-07-23T04:42:51.877Z,0.00
2018-07-23T04:43:51.697Z,0.00
2018-07-23T04:44:51.761Z,0.00
2018-07-23T04:45:52.050Z,0.00
2018-07-23T04:46:51.823Z,0.00
2018-07-23T04:47:51.884Z,0.00
2018-07-23T04:48:51.925Z,0.00
2018-07-23T04:49:51.937Z,0.00
2018-07-23T04:50:51.983Z,0.00
2018-07-23T04:51:52.235Z,0.00
2018-07-23T04:52:52.079Z,0.00
2018-07-23T04:53:52.091Z,0.00
2018-07-23T04:54:52.169Z,0.00
2018-07-23T04:55:52.190Z,0.00
2018-07-23T04:56:52.650Z,0.00
2018-07-23T04:57:52.284Z,0.00
2018-07-23T04:58:52.354Z,0.00
2018-07-23T04:59:52.308Z,0.00
2018-07-23T05:00:52.598Z,0.00
2018-07-23T05:01:52.634Z,0.00
2018-07-23T05:02:52.476Z,0.00
2018-07-23T05:03:52.721Z,0.00
2018-07-23T05:04:52.609Z,0.00
2018-07-23T05:05:52.643Z,0.00
2018-07-23T05:06:52.621Z,0.00
2018-07-23T05:07:52.660Z,0.00
2018-07-23T05:08:52.759Z,0.00
2018-07-23T05:09:52.803Z,0.00
2018-07-23T05:10:54.016Z,0.00
2018-07-23T05:11:53.339Z,0.00
2018-07-23T05:12:52.927Z,0.00
2018-07-23T05:13:52.955Z,0.00
2018-07-23T05:14:53.018Z,0.00
2018-07-23T05:15:53.356Z,0.00
2018-07-23T05:16:53.085Z,0.00
2018-07-23T05:17:53.331Z,0.00
2018-07-23T05:18:53.381Z,0.00
2018-07-23T05:19:53.233Z,0.00
2018-07-23T05:20:53.267Z,0.00
2018-07-23T05:21:53.335Z,0.00
2018-07-23T05:22:53.331Z,0.00
2018-07-23T05:23:53.648Z,0.00
2018-07-23T05:24:53.437Z,0.00
2018-07-23T05:25:53.477Z,0.00
2018-07-23T05:26:53.717Z,0.00
2018-07-23T05:27:53.753Z,0.00
2018-07-23T05:28:53.590Z,0.00
2018-07-23T05:29:53.584Z,0.00
2018-07-23T05:30:53.662Z,0.00
2018-07-23T05:31:53.747Z,0.00
2018-07-23T05:32:53.768Z,0.00
2018-07-23T05:33:53.761Z,0.00
2018-07-23T05:34:54.015Z,0.00
2018-07-23T05:35:53.846Z,0.00
2018-07-23T05:36:53.915Z,0.00
2018-07-23T05:37:53.958Z,0.00
2018-07-23T05:38:54.014Z,0.00
2018-07-23T05:39:54.064Z,0.00
2018-07-23T05:40:54.114Z,0.00
2018-07-23T05:41:54.147Z,0.00
2018-07-23T05:42:54.232Z,0.00
2018-07-23T05:43:54.233Z,0.00
2018-07-23T05:44:54.327Z,0.00
2018-07-23T05:45:54.286Z,0.00
2018-07-23T05:46:54.612Z,0.00
2018-07-23T05:47:54.371Z,0.00
2018-07-23T05:48:54.435Z,0.00
2018-07-23T05:49:54.467Z,0.00
2018-07-23T05:50:54.570Z,0.00
2018-07-23T05:51:54.571Z,0.00
2018-07-23T05:52:54.581Z,0.00
2018-07-23T05:53:54.581Z,0.00
2018-07-23T05:54:54.650Z,0.00
2018-07-23T05:55:54.701Z,0.00
2018-07-23T05:56:54.721Z,0.00
2018-07-23T05:57:54.799Z,0.00
2018-07-23T05:58:54.887Z,0.00
2018-07-23T05:59:54.840Z,0.00
2018-07-23T06:00:54.954Z,0.00
2018-07-23T06:01:55.005Z,0.00
2018-07-23T06:02:55.005Z,0.00
2018-07-23T06:03:55.094Z,0.00
2018-07-23T06:04:55.083Z,0.00
2018-07-23T06:05:55.110Z,0.00
2018-07-23T06:06:55.364Z,0.00
2018-07-23T06:07:55.374Z,0.00
2018-07-23T06:08:55.272Z,0.00
2018-07-23T06:09:55.262Z,0.00
2018-07-23T06:10:55.319Z,0.00
2018-07-23T06:11:55.355Z,0.00
2018-07-23T06:12:55.419Z,0.00
2018-07-23T06:13:55.461Z,0.00
2018-07-23T06:14:55.505Z,0.00
2018-07-23T06:15:55.552Z,0.00
2018-07-23T06:16:55.593Z,0.00
2018-07-23T06:17:55.757Z,0.00
2018-07-23T06:18:55.861Z,0.00
2018-07-23T06:19:55.720Z,0.00
2018-07-23T06:20:55.783Z,0.00
2018-07-23T06:21:55.790Z,0.00
2018-07-23T06:22:55.858Z,0.00
2018-07-23T06:23:55.887Z,0.00
2018-07-23T06:24:56.047Z,0.00
2018-07-23T06:25:55.955Z,0.00
2018-07-23T06:26:56.002Z,0.00
2018-07-23T06:27:56.098Z,0.00
2018-07-23T06:28:56.097Z,0.00
2018-07-23T06:29:56.367Z,0.00
2018-07-23T06:30:56.167Z,0.00
2018-07-23T06:31:56.190Z,0.00
2018-07-23T06:32:56.256Z,0.00
2018-07-23T06:33:56.325Z,0.00
2018-07-23T06:34:56.340Z,0.00
2018-07-23T06:35:56.361Z,0.00
2018-07-23T06:36:56.466Z,0.00
2018-07-23T06:37:56.449Z,0.00
2018-07-23T06:38:56.518Z,0.00
2018-07-23T06:39:56.695Z,0.00
2018-07-23T06:40:56.600Z,0.00
2018-07-23T06:41:56.620Z,0.00
2018-07-23T06:42:56.686Z,0.00
2018-07-23T06:43:56.711Z,0.00
2018-07-23T06:44:56.971Z,0.00
2018-07-23T06:45:56.841Z,0.00
2018-07-23T06:46:56.872Z,0.00
2018-07-23T06:47:56.929Z,0.00
2018-07-23T06:48:56.923Z,0.00
2018-07-23T06:50:03.235Z,0.00
2018-07-23T06:50:57.150Z,0.00
2018-07-23T06:51:57.049Z,0.00
2018-07-23T06:52:57.096Z,0.00
2018-07-23T06:53:57.191Z,0.00
2018-07-23T06:54:57.185Z,0.00
2018-07-23T06:55:57.222Z,0.00
2018-07-23T06:56:57.492Z,0.00
2018-07-23T06:57:57.284Z,0.00
2018-07-23T06:58:57.345Z,0.00
2018-07-23T06:59:57.401Z,0.00
2018-07-23T07:00:57.442Z,0.00
2018-07-23T07:01:57.469Z,0.00
2018-07-23T07:02:57.563Z,0.00
2018-07-23T07:03:57.571Z,0.00
2018-07-23T07:04:57.657Z,0.00
2018-07-23T07:05:57.642Z,0.00
2018-07-23T07:06:57.884Z,0.00
2018-07-23T07:07:57.914Z,0.00
2018-07-23T07:08:57.785Z,0.00
2018-07-23T07:09:57.785Z,0.00
2018-07-23T07:10:57.890Z,0.00
2018-07-23T07:11:57.893Z,0.00
2018-07-23T07:12:57.929Z,0.00
2018-07-23T07:13:57.973Z,0.00
2018-07-23T07:14:58.011Z,0.00
2018-07-23T07:15:58.063Z,0.00
2018-07-23T07:16:58.100Z,0.00
2018-07-23T07:17:58.337Z,0.00
2018-07-23T07:18:58.178Z,0.00
2018-07-23T07:19:58.267Z,0.00
2018-07-23T07:20:58.288Z,0.00
2018-07-23T07:21:58.353Z,0.00
2018-07-23T07:22:58.602Z,0.00
2018-07-23T07:23:58.420Z,0.00
2018-07-23T07:24:58.485Z,0.00
2018-07-23T07:25:58.483Z,0.00
2018-07-23T07:26:58.568Z,0.00
2018-07-23T07:27:58.554Z,0.00
2018-07-23T07:28:58.661Z,0.00
2018-07-23T07:29:58.648Z,0.00
2018-07-23T07:30:58.741Z,0.00
2018-07-23T07:31:58.736Z,0.00
2018-07-23T07:32:58.971Z,0.00
2018-07-23T07:33:58.823Z,0.00
2018-07-23T07:34:58.844Z,0.00
2018-07-23T07:35:58.911Z,0.00
2018-07-23T07:36:58.934Z,0.00
2018-07-23T07:37:59.296Z,0.00
2018-07-23T07:38:59.019Z,0.00
2018-07-23T07:39:59.125Z,0.00
2018-07-23T07:40:59.120Z,0.00
2018-07-23T07:41:59.160Z,0.00
2018-07-23T07:42:59.219Z,0.00
2018-07-23T07:43:59.388Z,0.00
2018-07-23T07:44:59.305Z,0.00
2018-07-23T07:45:59.366Z,0.00
2018-07-23T07:46:59.415Z,0.00
2018-07-23T07:47:59.464Z,0.00
2018-07-23T07:48:59.473Z,0.00
2018-07-23T07:49:59.700Z,0.00
2018-07-23T07:50:59.538Z,0.00
2018-07-23T07:51:59.634Z,0.00
2018-07-23T07:52:59.638Z,0.00
2018-07-23T07:53:59.662Z,0.00
2018-07-23T07:54:59.882Z,0.00
2018-07-23T07:55:59.747Z,0.00
2018-07-23T07:56:59.782Z,0.00
2018-07-23T07:57:59.881Z,0.00
2018-07-23T07:58:59.882Z,0.00
2018-07-23T07:59:59.932Z,0.00
2018-07-23T08:01:00.014Z,0.00
2018-07-23T08:02:00.053Z,0.00
2018-07-23T08:03:00.080Z,0.00
2018-07-23T08:04:00.103Z,0.00
2018-07-23T08:05:00.337Z,0.00
2018-07-23T08:06:00.317Z,0.00
2018-07-23T08:07:00.252Z,0.00
2018-07-23T08:08:00.270Z,0.00
2018-07-23T08:09:00.294Z,0.00
2018-07-23T08:10:00.346Z,0.00
2018-07-23T08:11:00.368Z,0.00
2018-07-23T08:12:00.640Z,0.00
2018-07-23T08:13:00.469Z,0.00
2018-07-23T08:14:00.510Z,0.00
2018-07-23T08:15:00.592Z,0.00
2018-07-23T08:16:00.718Z,0.00
2018-07-23T08:17:00.798Z,0.00
2018-07-23T08:18:00.683Z,0.00
2018-07-23T08:19:00.754Z,0.00
2018-07-23T08:20:00.755Z,0.00
2018-07-23T08:21:00.819Z,0.00
2018-07-23T08:22:01.132Z,0.00
2018-07-23T08:23:01.141Z,0.00
2018-07-23T08:24:00.943Z,0.00
2018-07-23T08:25:01.010Z,0.00
2018-07-23T08:26:00.994Z,0.00
2018-07-23T08:27:01.100Z,0.00
2018-07-23T08:28:01.242Z,0.00
2018-07-23T08:29:01.154Z,0.00
2018-07-23T08:30:01.205Z,0.00
2018-07-23T08:31:01.227Z,0.00
2018-07-23T08:32:01.408Z,0.00
2018-07-23T08:33:01.327Z,0.00
2018-07-23T08:34:01.357Z,0.00
2018-07-23T08:35:01.399Z,0.00
2018-07-23T08:36:01.452Z,0.00
2018-07-23T08:37:01.519Z,0.00
2018-07-23T08:38:01.500Z,0.00
2018-07-23T08:39:01.565Z,0.00
2018-07-23T08:40:01.803Z,0.00
2018-07-23T08:41:01.689Z,0.00
2018-07-23T08:42:01.689Z,0.00
2018-07-23T08:43:01.773Z,0.00
2018-07-23T08:44:01.778Z,0.00
2018-07-23T08:45:01.850Z,0.00
2018-07-23T08:46:01.851Z,0.00
2018-07-23T08:47:01.914Z,0.00
2018-07-23T08:48:01.921Z,0.00
2018-07-23T08:49:02.000Z,0.00
2018-07-23T08:50:02.233Z,0.00
2018-07-23T08:51:02.053Z,0.00
2018-07-23T08:52:02.101Z,0.00
2018-07-23T08:53:02.185Z,0.00
2018-07-23T08:54:02.188Z,0.00
2018-07-23T08:55:02.395Z,0.00
2018-07-23T08:56:02.294Z,0.00
2018-07-23T08:57:02.330Z,0.00
2018-07-23T08:58:02.367Z,0.00
2018-07-23T08:59:02.386Z,0.00
2018-07-23T09:00:02.505Z,0.00
2018-07-23T09:01:02.676Z,0.00
2018-07-23T09:02:02.537Z,0.00
2018-07-23T09:03:02.556Z,0.00
2018-07-23T09:04:02.619Z,0.00
2018-07-23T09:05:02.665Z,0.00
2018-07-23T09:06:02.704Z,0.00
2018-07-23T09:07:02.749Z,0.00
2018-07-23T09:08:02.778Z,0.00
2018-07-23T09:09:02.836Z,0.00
2018-07-23T09:10:02.870Z,0.00
2018-07-23T09:11:02.980Z,0.00
2018-07-23T09:12:03.163Z,0.00
2018-07-23T09:13:03.240Z,0.00
2018-07-23T09:14:03.038Z,0.00
2018-07-23T09:15:03.088Z,0.00
2018-07-23T09:16:03.145Z,0.00
2018-07-23T09:17:03.165Z,0.00
2018-07-23T09:18:03.259Z,0.00
2018-07-23T09:19:03.261Z,0.00
2018-07-23T09:20:03.357Z,0.00
2018-07-23T09:21:03.320Z,0.00
2018-07-23T09:22:03.402Z,0.00
2018-07-23T09:23:03.424Z,4.00
2018-07-23T09:24:03.612Z,4.00
2018-07-23T09:25:03.730Z,4.00
2018-07-23T09:26:03.539Z,0.00
2018-07-23T09:27:03.598Z,4.00
2018-07-23T09:28:03.628Z,8.00
2018-07-23T09:29:03.678Z,8.00
2018-07-23T09:30:03.700Z,8.00
2018-07-23T09:31:03.765Z,12.00
2018-07-23T09:32:03.845Z,12.00
2018-07-23T09:33:03.833Z,16.00
2018-07-23T09:34:03.893Z,20.00
2018-07-23T09:35:04.136Z,24.00
2018-07-23T09:36:03.941Z,28.00
2018-07-23T09:37:04.015Z,36.00
2018-07-23T09:38:04.083Z,44.00
2018-07-23T09:39:04.095Z,56.00
2018-07-23T09:40:04.132Z,72.00
2018-07-23T09:41:04.192Z,84.00
2018-07-23T09:42:04.214Z,104.00
2018-07-23T09:43:04.246Z,116.00
2018-07-23T09:44:04.292Z,128.00
2018-07-23T09:45:04.361Z,148.00
2018-07-23T09:46:04.544Z,172.00
2018-07-23T09:47:04.434Z,212.00
2018-07-23T09:48:04.486Z,244.00
2018-07-23T09:49:04.518Z,284.00
2018-07-23T09:50:04.544Z,336.00
2018-07-23T09:51:04.612Z,396.00
2018-07-23T09:52:04.855Z,452.00
2018-07-23T09:53:04.696Z,500.00
2018-07-23T09:54:04.756Z,584.00
2018-07-23T09:55:04.767Z,624.00
2018-07-23T09:56:04.802Z,692.00
2018-07-23T09:57:04.848Z,808.00
2018-07-23T09:58:05.054Z,836.00
2018-07-23T09:59:05.002Z,920.00
2018-07-23T10:00:04.998Z,980.00
2018-07-23T10:01:05.027Z,1032.00
2018-07-23T10:02:05.059Z,1132.00
2018-07-23T10:03:05.256Z,1176.00
2018-07-23T10:04:05.136Z,1256.00
2018-07-23T10:05:05.226Z,1348.00
2018-07-23T10:06:05.218Z,1404.00
2018-07-23T10:07:05.256Z,1420.00
2018-07-23T10:08:05.462Z,1428.00
2018-07-23T10:09:05.357Z,1540.00
2018-07-23T10:10:05.389Z,1732.00
2018-07-23T10:11:05.442Z,1920.00
2018-07-23T10:12:05.494Z,2072.00
2018-07-23T10:13:05.532Z,2208.00
2018-07-23T10:14:05.609Z,2256.00
2018-07-23T10:15:05.613Z,2296.00
2018-07-23T10:16:05.652Z,2340.00
2018-07-23T10:17:05.686Z,2424.00
2018-07-23T10:18:05.950Z,2508.00
2018-07-23T10:19:05.773Z,2728.00
2018-07-23T10:20:05.817Z,2884.00
2018-07-23T10:21:05.877Z,2880.00
2018-07-23T10:22:05.905Z,2976.00
2018-07-23T10:23:05.958Z,2984.00
2018-07-23T10:24:05.998Z,3104.00
2018-07-23T10:25:06.178Z,3392.00
2018-07-23T10:26:06.097Z,3588.00
2018-07-23T10:27:06.113Z,3768.00
2018-07-23T10:28:06.163Z,3948.00
2018-07-23T10:29:06.210Z,4132.00
2018-07-23T10:30:06.219Z,4456.00
2018-07-23T10:31:06.309Z,4560.00
2018-07-23T10:32:06.321Z,4516.00
2018-07-23T10:33:06.360Z,4540.00
2018-07-23T10:34:06.427Z,4628.00
2018-07-23T10:35:06.477Z,4652.00
2018-07-23T10:36:06.711Z,4788.00
2018-07-23T10:37:06.638Z,5000.00
2018-07-23T10:38:06.613Z,5320.00
2018-07-23T10:39:06.687Z,5280.00
2018-07-23T10:40:06.643Z,5340.00
2018-07-23T10:41:06.808Z,5576.00
2018-07-23T10:42:06.993Z,6000.00
2018-07-23T10:43:06.842Z,6420.00
2018-07-23T10:44:06.888Z,6536.00
2018-07-23T10:45:06.937Z,6984.00
2018-07-23T10:46:06.943Z,6924.00
2018-07-23T10:47:06.982Z,7276.00
2018-07-23T10:48:07.010Z,7396.00
2018-07-23T10:49:07.049Z,7552.00
2018-07-23T10:50:07.125Z,8724.00
2018-07-23T10:51:07.130Z,9616.00
2018-07-23T10:52:07.377Z,8088.00
2018-07-23T10:53:07.220Z,8564.00
2018-07-23T10:54:07.294Z,9484.00
2018-07-23T10:55:07.310Z,9812.00
2018-07-23T10:56:07.352Z,9172.00
2018-07-23T10:57:07.644Z,11520.00
2018-07-23T10:58:07.408Z,14212.00
2018-07-23T10:59:07.467Z,16928.00
2018-07-23T11:00:07.524Z,17120.00
2018-07-23T11:01:07.581Z,19680.00
2018-07-23T11:02:07.602Z,21792.00
2018-07-23T11:03:07.913Z,18560.00
2018-07-23T11:04:07.715Z,21440.00
2018-07-23T11:05:07.734Z,21088.00
2018-07-23T11:06:07.802Z,24704.00
2018-07-23T11:07:07.839Z,26144.00
2018-07-23T11:08:08.087Z,26624.00
2018-07-23T11:09:07.933Z,29472.00
2018-07-23T11:10:07.975Z,30656.00
2018-07-23T11:11:08.014Z,26080.00
2018-07-23T11:12:08.055Z,26432.00
2018-07-23T11:13:08.116Z,28768.00
2018-07-23T11:14:08.277Z,29120.00
2018-07-23T11:15:08.187Z,29856.00
2018-07-23T11:16:08.298Z,30048.00
2018-07-23T11:17:08.294Z,29376.00
2018-07-23T11:18:08.330Z,30720.00
2018-07-23T11:19:08.408Z,30432.00
2018-07-23T11:20:08.415Z,31616.00
2018-07-23T11:21:08.476Z,32192.00
2018-07-23T11:22:08.525Z,30400.00
2018-07-23T11:23:08.537Z,30400.00
2018-07-23T11:24:08.596Z,31168.00
2018-07-23T11:25:38.595Z,31904.00
2018-07-23T11:26:08.729Z,31424.00
2018-07-23T11:27:08.762Z,31680.00
2018-07-23T11:28:08.795Z,32992.00
2018-07-23T11:29:08.837Z,32864.00
2018-07-23T11:30:08.886Z,32512.00
2018-07-23T11:31:08.971Z,33024.00
2018-07-23T11:32:09.087Z,33728.00
2018-07-23T11:33:09.014Z,33344.00
2018-07-23T11:34:09.077Z,32096.00
2018-07-23T11:35:09.335Z,30048.00
2018-07-23T11:36:09.164Z,30720.00
2018-07-23T11:37:09.214Z,34464.00
2018-07-23T11:38:09.285Z,37056.00
2018-07-23T11:39:09.290Z,37888.00
2018-07-23T11:40:09.347Z,40256.00
2018-07-23T11:41:09.546Z,41184.00
2018-07-23T11:42:09.432Z,40352.00
2018-07-23T11:43:09.484Z,40416.00
2018-07-23T11:44:09.550Z,40480.00
2018-07-23T11:45:09.636Z,40288.00
2018-07-23T11:46:24.418Z,39552.00
2018-07-23T11:47:09.863Z,39904.00
2018-07-23T11:48:09.796Z,41248.00
2018-07-23T11:49:09.798Z,41568.00
2018-07-23T11:50:09.829Z,43008.00
2018-07-23T11:51:09.913Z,45216.00
2018-07-23T11:52:14.353Z,40352.00
2018-07-23T11:53:10.203Z,40672.00
2018-07-23T11:54:10.029Z,43424.00
2018-07-23T11:55:10.075Z,45024.00
2018-07-23T11:56:10.119Z,45280.00
2018-07-23T11:57:10.192Z,46688.00
2018-07-23T11:58:10.449Z,50208.00
2018-07-23T11:59:10.273Z,51520.00
2018-07-23T12:00:10.324Z,54304.00
2018-07-23T12:01:10.363Z,54816.00
2018-07-23T12:02:10.410Z,55232.00
2018-07-23T12:03:10.471Z,53472.00
2018-07-23T12:04:10.737Z,51616.00
2018-07-23T12:05:10.576Z,50240.00
2018-07-23T12:06:10.631Z,52800.00
2018-07-23T12:07:10.674Z,54688.00
2018-07-23T12:08:11.020Z,56768.00
2018-07-23T12:09:10.785Z,54144.00
2018-07-23T12:10:10.811Z,56224.00
2018-07-23T12:11:10.879Z,56960.00
2018-07-23T12:12:10.945Z,58176.00
2018-07-23T12:13:10.999Z,57664.00
2018-07-23T12:14:11.018Z,53440.00
2018-07-23T12:15:11.093Z,57056.00
2018-07-23T12:16:11.144Z,55936.00
2018-07-23T12:17:11.235Z,57056.00
2018-07-23T12:18:11.210Z,60224.00
2018-07-23T12:19:11.318Z,62240.00
2018-07-23T12:20:11.331Z,61696.00
2018-07-23T12:21:11.378Z,59488.00
2018-07-23T12:22:11.445Z,57152.00
2018-07-23T12:23:11.693Z,56224.00
2018-07-23T12:24:11.554Z,56928.00
2018-07-23T12:25:11.599Z,56672.00
2018-07-23T12:26:11.784Z,57152.00
2018-07-23T12:27:11.699Z,60608.00
2018-07-23T12:28:11.756Z,55776.00
2018-07-23T12:29:11.990Z,42720.00
2018-07-23T12:30:11.918Z,36416.00
2018-07-23T12:31:11.902Z,27200.00
2018-07-23T12:32:11.965Z,31584.00
2018-07-23T12:33:12.024Z,51936.00
2018-07-23T12:34:12.076Z,56192.00
2018-07-23T12:35:12.277Z,59360.00
2018-07-23T12:36:12.153Z,62912.00
2018-07-23T12:37:12.235Z,62976.00
2018-07-23T12:38:12.288Z,64384.00
2018-07-23T12:39:12.351Z,59968.00
2018-07-23T12:40:12.352Z,58240.00
2018-07-23T12:41:12.425Z,63232.00
2018-07-23T12:42:12.530Z,65536.00
2018-07-23T12:43:12.530Z,66080.00
2018-07-23T12:44:12.604Z,68448.00
2018-07-23T12:45:12.662Z,68928.00
2018-07-23T12:46:12.704Z,71040.00
2018-07-23T12:47:13.068Z,71104.00
2018-07-23T12:48:12.805Z,68832.00
2018-07-23T12:49:12.855Z,71392.00
2018-07-23T12:50:12.906Z,72992.00
2018-07-23T12:51:12.958Z,71936.00
2018-07-23T12:52:13.007Z,68672.00
2018-07-23T12:53:13.069Z,69120.00
2018-07-23T12:54:13.119Z,69920.00
2018-07-23T12:55:13.173Z,68800.00
2018-07-23T12:56:13.233Z,68992.00